Time;durP1;ratioP1;P1;durP2;ratioP2;P2;SDS_P1;SDS_P2;PMS_P1;PMS_P2;Temp;Humidity;BMP_temperature;BMP_pressure;BME280_temperature;BME280_humidity;BME280_pressure;Samples;Min_cycle;Max_cycle;Signal;HPM_P1;HPM_P2
2021/07/07 00:00:34;;;;;;;;;;;21.80;60.00;;;;;;510788;231;2129;-73
2021/07/07 00:02:36;;;;;;;;;;;21.80;60.00;;;;;;516378;230;1043;-73
2021/07/07 00:04:37;;;;;;;;;;;21.80;60.10;;;;;;516418;230;987;-73
2021/07/07 00:06:38;;;;;;;;;;;21.80;60.10;;;;;;516423;231;966;-73
2021/07/07 00:08:40;;;;;;;;;;;21.80;60.10;;;;;;516363;230;965;-73
2021/07/07 00:10:41;;;;;;;;;;;21.70;60.10;;;;;;516484;231;940;-73
2021/07/07 00:12:42;;;;;;;;;;;21.80;60.20;;;;;;516446;230;1082;-73
2021/07/07 00:14:44;;;;;;;;;;;21.80;60.10;;;;;;516464;231;1175;-73
2021/07/07 00:16:45;;;;;;;;;;;21.80;60.00;;;;;;516374;230;1318;-73
2021/07/07 00:18:46;;;;;;;;;;;21.80;60.10;;;;;;516357;230;976;-73
2021/07/07 00:20:54;;;;;;;;;;;21.80;60.10;;;;;;516406;231;2176;-73
2021/07/07 00:22:49;;;;;;;;;;;21.80;60.00;;;;;;515990;230;1441;-73
2021/07/07 00:24:50;;;;;;;;;;;21.80;60.00;;;;;;516449;231;1003;-74
2021/07/07 00:26:52;;;;;;;;;;;21.80;60.00;;;;;;516428;230;1192;-73
2021/07/07 00:28:53;;;;;;;;;;;21.80;60.00;;;;;;516412;231;1104;-73
2021/07/07 00:30:54;;;;;;;;;;;21.80;60.00;;;;;;516428;230;1223;-73
2021/07/07 00:32:56;;;;;;;;;;;21.80;60.00;;;;;;516389;231;1036;-73
2021/07/07 00:34:57;;;;;;;;;;;21.70;60.10;;;;;;516338;231;930;-73
2021/07/07 00:36:58;;;;;;;;;;;21.80;60.10;;;;;;516435;230;1016;-73
2021/07/07 00:39:00;;;;;;;;;;;21.80;60.10;;;;;;516424;231;918;-73
2021/07/07 00:41:01;;;;;;;;;;;21.80;60.10;;;;;;516398;230;2180;-73
2021/07/07 00:43:02;;;;;;;;;;;21.80;60.00;;;;;;516414;230;980;-73
2021/07/07 00:45:04;;;;;;;;;;;21.80;60.30;;;;;;516372;230;1185;-73
2021/07/07 00:47:05;;;;;;;;;;;21.80;60.10;;;;;;516353;231;1032;-74
2021/07/07 00:49:07;;;;;;;;;;;21.80;60.20;;;;;;516410;230;1029;-73
2021/07/07 00:51:08;;;;;;;;;;;21.80;60.10;;;;;;516448;230;931;-73
2021/07/07 00:53:09;;;;;;;;;;;21.80;60.10;;;;;;516466;230;988;-73
2021/07/07 00:55:10;;;;;;;;;;;21.90;60.00;;;;;;516456;231;988;-73
2021/07/07 00:57:12;;;;;;;;;;;21.80;60.00;;;;;;516383;230;915;-73
2021/07/07 00:59:13;;;;;;;;;;;21.80;60.10;;;;;;516390;230;1114;-73
2021/07/07 01:01:14;;;;;;;;;;;21.80;60.30;;;;;;516403;230;2125;-73
2021/07/07 01:03:16;;;;;;;;;;;21.80;60.40;;;;;;516412;231;1026;-73
2021/07/07 01:05:17;;;;;;;;;;;21.80;60.40;;;;;;516445;231;1017;-73
2021/07/07 01:07:18;;;;;;;;;;;21.80;60.30;;;;;;516357;231;961;-73
2021/07/07 01:09:20;;;;;;;;;;;21.80;60.30;;;;;;516393;230;934;-73
2021/07/07 01:11:21;;;;;;;;;;;21.80;60.40;;;;;;516421;230;1050;-73
2021/07/07 01:13:22;;;;;;;;;;;21.80;60.20;;;;;;516364;231;916;-73
2021/07/07 01:15:24;;;;;;;;;;;21.80;60.30;;;;;;516397;230;1155;-73
2021/07/07 01:17:29;;;;;;;;;;;21.80;60.30;;;;;;516327;231;1135;-73
2021/07/07 01:19:26;;;;;;;;;;;21.80;60.20;;;;;;516146;230;1436;-73
2021/07/07 01:21:28;;;;;;;;;;;21.80;60.30;;;;;;516367;230;2169;-73
2021/07/07 01:23:29;;;;;;;;;;;21.80;60.40;;;;;;516398;230;1144;-73
2021/07/07 01:25:30;;;;;;;;;;;21.80;60.30;;;;;;516472;230;973;-73
2021/07/07 01:27:32;;;;;;;;;;;21.60;60.80;;;;;;516233;231;1216;-73
2021/07/07 01:29:33;;;;;;;;;;;21.40;61.40;;;;;;516333;231;1128;-73
2021/07/07 01:31:34;;;;;;;;;;;21.20;62.10;;;;;;516300;230;986;-73
2021/07/07 01:33:36;;;;;;;;;;;21.10;62.50;;;;;;516317;231;1095;-73
2021/07/07 01:35:37;;;;;;;;;;;21.10;62.80;;;;;;516461;230;1056;-73
2021/07/07 01:37:38;;;;;;;;;;;21.10;63.00;;;;;;516240;231;1158;-73
2021/07/07 01:39:40;;;;;;;;;;;21.00;63.10;;;;;;516316;230;1094;-73
2021/07/07 01:41:41;;;;;;;;;;;20.90;63.30;;;;;;516305;230;2156;-73
2021/07/07 01:43:42;;;;;;;;;;;20.90;63.50;;;;;;516179;230;905;-73
2021/07/07 01:45:44;;;;;;;;;;;20.90;63.60;;;;;;516306;230;1123;-73
2021/07/07 01:47:45;;;;;;;;;;;20.80;63.70;;;;;;516331;231;1148;-73
2021/07/07 01:49:46;;;;;;;;;;;20.80;63.80;;;;;;516371;231;957;-73
2021/07/07 01:51:48;;;;;;;;;;;20.80;63.80;;;;;;516353;230;1288;-73
2021/07/07 01:53:49;;;;;;;;;;;20.80;63.80;;;;;;516344;230;1148;-73
2021/07/07 01:55:54;;;;;;;;;;;20.80;63.90;;;;;;516384;231;1007;-73
2021/07/07 01:57:52;;;;;;;;;;;20.70;63.90;;;;;;516077;230;1423;-73
2021/07/07 01:59:53;;;;;;;;;;;20.70;64.00;;;;;;516341;231;1089;-74
2021/07/07 02:01:54;;;;;;;;;;;20.70;64.10;;;;;;516340;230;2172;-73
2021/07/07 02:03:56;;;;;;;;;;;20.70;64.10;;;;;;516335;230;924;-73
2021/07/07 02:05:57;;;;;;;;;;;20.70;64.20;;;;;;516370;230;1003;-73
2021/07/07 02:07:58;;;;;;;;;;;20.70;64.30;;;;;;516317;231;1123;-73
2021/07/07 02:10:00;;;;;;;;;;;20.70;64.30;;;;;;516373;230;1091;-73
2021/07/07 02:12:01;;;;;;;;;;;20.70;64.20;;;;;;516415;231;1174;-73
2021/07/07 02:14:02;;;;;;;;;;;20.70;64.30;;;;;;516402;230;942;-73
2021/07/07 02:16:04;;;;;;;;;;;20.60;64.20;;;;;;516412;231;1179;-73
2021/07/07 02:18:05;;;;;;;;;;;20.70;64.20;;;;;;516211;230;971;-73
2021/07/07 02:20:06;;;;;;;;;;;20.70;64.20;;;;;;516449;231;900;-73
2021/07/07 02:22:08;;;;;;;;;;;20.70;64.30;;;;;;516344;231;2164;-73
2021/07/07 02:24:09;;;;;;;;;;;20.60;64.20;;;;;;516381;231;908;-73
2021/07/07 02:26:10;;;;;;;;;;;20.60;64.30;;;;;;516396;230;956;-73
2021/07/07 02:28:12;;;;;;;;;;;20.70;64.30;;;;;;516366;230;910;-73
2021/07/07 02:30:13;;;;;;;;;;;20.60;64.30;;;;;;516294;231;1118;-73
2021/07/07 02:32:14;;;;;;;;;;;20.60;64.40;;;;;;516344;230;956;-73
2021/07/07 02:34:16;;;;;;;;;;;20.60;64.40;;;;;;516317;231;947;-73
2021/07/07 02:36:17;;;;;;;;;;;20.60;64.40;;;;;;516351;231;992;-73
2021/07/07 02:38:18;;;;;;;;;;;20.60;64.40;;;;;;516322;231;1137;-73
2021/07/07 02:40:20;;;;;;;;;;;20.60;64.40;;;;;;516362;230;952;-73
2021/07/07 02:42:21;;;;;;;;;;;20.60;64.40;;;;;;516310;230;2168;-73
2021/07/07 02:44:22;;;;;;;;;;;20.60;64.30;;;;;;516305;231;1069;-73
2021/07/07 02:46:24;;;;;;;;;;;20.60;64.30;;;;;;516349;231;1282;-73
2021/07/07 02:48:25;;;;;;;;;;;20.60;64.40;;;;;;516332;230;982;-73
2021/07/07 02:50:26;;;;;;;;;;;20.70;64.40;;;;;;516449;231;1207;-73
2021/07/07 02:52:28;;;;;;;;;;;20.70;64.40;;;;;;516384;230;925;-73
2021/07/07 02:54:29;;;;;;;;;;;20.70;64.40;;;;;;516307;230;962;-73
2021/07/07 02:56:30;;;;;;;;;;;20.70;64.40;;;;;;516419;231;943;-73
2021/07/07 02:58:32;;;;;;;;;;;20.60;64.40;;;;;;516343;230;957;-73
2021/07/07 03:00:33;;;;;;;;;;;20.60;64.40;;;;;;516352;230;1163;-73
2021/07/07 03:02:34;;;;;;;;;;;20.70;64.50;;;;;;516384;230;2121;-74
2021/07/07 03:04:36;;;;;;;;;;;20.70;64.50;;;;;;516407;230;1050;-73
2021/07/07 03:06:37;;;;;;;;;;;20.70;64.60;;;;;;516292;231;1273;-73
2021/07/07 03:08:42;;;;;;;;;;;20.70;64.60;;;;;;516456;230;1010;-73
2021/07/07 03:10:40;;;;;;;;;;;20.70;64.60;;;;;;516128;230;1447;-73
2021/07/07 03:12:41;;;;;;;;;;;20.70;64.60;;;;;;516279;231;1208;-73
2021/07/07 03:14:42;;;;;;;;;;;20.70;64.50;;;;;;516379;230;1019;-73
2021/07/07 03:16:44;;;;;;;;;;;20.70;64.50;;;;;;516273;231;1174;-73
2021/07/07 03:18:45;;;;;;;;;;;20.70;64.40;;;;;;516381;230;962;-73
2021/07/07 03:20:46;;;;;;;;;;;20.70;64.50;;;;;;516286;231;1027;-73
2021/07/07 03:22:48;;;;;;;;;;;20.70;64.50;;;;;;516221;230;2113;-73
2021/07/07 03:24:49;;;;;;;;;;;20.70;64.50;;;;;;516337;230;974;-73
2021/07/07 03:26:50;;;;;;;;;;;20.70;64.60;;;;;;516299;231;989;-73
2021/07/07 03:28:52;;;;;;;;;;;20.70;64.60;;;;;;516343;230;1065;-73
2021/07/07 03:30:53;;;;;;;;;;;20.70;64.70;;;;;;516349;231;1141;-73
2021/07/07 03:32:54;;;;;;;;;;;20.70;64.80;;;;;;516296;230;931;-73
2021/07/07 03:34:56;;;;;;;;;;;20.60;64.80;;;;;;516357;231;1024;-73
2021/07/07 03:36:57;;;;;;;;;;;20.60;64.70;;;;;;516352;230;1024;-73
2021/07/07 03:38:58;;;;;;;;;;;20.60;64.70;;;;;;516326;230;923;-73
2021/07/07 03:41:00;;;;;;;;;;;20.60;64.80;;;;;;516282;231;2165;-73
2021/07/07 03:43:01;;;;;;;;;;;20.60;64.80;;;;;;516372;230;1009;-73
2021/07/07 03:45:02;;;;;;;;;;;20.60;64.70;;;;;;516349;230;983;-73
2021/07/07 03:47:04;;;;;;;;;;;20.60;64.70;;;;;;516308;231;1286;-73
2021/07/07 03:49:05;;;;;;;;;;;20.60;64.80;;;;;;516357;230;963;-73
2021/07/07 03:51:06;;;;;;;;;;;20.60;64.80;;;;;;516361;230;948;-73
2021/07/07 03:53:08;;;;;;;;;;;20.60;64.90;;;;;;516233;230;1114;-73
2021/07/07 03:55:09;;;;;;;;;;;20.60;64.90;;;;;;516352;231;1012;-73
2021/07/07 03:57:10;;;;;;;;;;;20.60;64.90;;;;;;516353;230;1203;-73
2021/07/07 03:59:12;;;;;;;;;;;20.60;65.00;;;;;;516374;231;1094;-73
2021/07/07 04:01:13;;;;;;;;;;;20.60;64.90;;;;;;516162;231;2141;-73
2021/07/07 04:03:14;;;;;;;;;;;20.60;65.00;;;;;;508490;232;1046;-73
2021/07/07 04:05:16;;;;;;;;;;;20.60;64.90;;;;;;515547;231;949;-73
2021/07/07 04:07:17;;;;;;;;;;;20.60;64.90;;;;;;516289;231;962;-74
2021/07/07 04:09:19;;;;;;;;;;;20.60;64.90;;;;;;516382;230;953;-73
2021/07/07 04:11:20;;;;;;;;;;;20.60;65.00;;;;;;516313;231;1011;-73
2021/07/07 04:13:23;;;;;;;;;;;20.60;65.00;;;;;;516130;230;1060;-73
2021/07/07 04:15:23;;;;;;;;;;;20.60;64.90;;;;;;516117;230;1301;-73
2021/07/07 04:17:24;;;;;;;;;;;20.60;65.00;;;;;;516162;231;1164;-73
2021/07/07 04:19:26;;;;;;;;;;;20.60;64.80;;;;;;516084;230;1226;-73
2021/07/07 04:21:27;;;;;;;;;;;20.60;64.80;;;;;;516089;230;2141;-73
2021/07/07 04:23:28;;;;;;;;;;;20.60;64.80;;;;;;516141;230;923;-73
2021/07/07 04:25:30;;;;;;;;;;;20.60;64.80;;;;;;516140;231;1140;-73
2021/07/07 04:27:31;;;;;;;;;;;20.60;64.90;;;;;;516171;230;1042;-73
2021/07/07 04:29:32;;;;;;;;;;;20.60;64.90;;;;;;516603;230;962;-73
2021/07/07 04:31:34;;;;;;;;;;;20.60;64.80;;;;;;516032;230;1161;-73
2021/07/07 04:33:35;;;;;;;;;;;20.60;64.80;;;;;;516072;231;1004;-73
2021/07/07 04:35:37;;;;;;;;;;;20.60;64.80;;;;;;516061;231;958;-73
2021/07/07 04:37:38;;;;;;;;;;;20.60;64.80;;;;;;516034;231;1052;-73
2021/07/07 04:39:39;;;;;;;;;;;20.60;64.80;;;;;;516129;230;959;-73
2021/07/07 04:41:41;;;;;;;;;;;20.60;64.80;;;;;;515015;230;2114;-73
2021/07/07 04:43:42;;;;;;;;;;;20.60;64.80;;;;;;515394;230;954;-73
2021/07/07 04:45:45;;;;;;;;;;;20.60;64.90;;;;;;517070;230;944;-73
2021/07/07 04:47:45;;;;;;;;;;;20.60;64.90;;;;;;516336;229;1403;-73
2021/07/07 04:49:48;;;;;;;;;;;20.60;64.90;;;;;;515907;230;1028;-73
2021/07/07 04:51:49;;;;;;;;;;;20.60;65.00;;;;;;515983;230;1010;-73
2021/07/07 04:53:50;;;;;;;;;;;20.50;65.00;;;;;;515796;231;963;-73
2021/07/07 04:55:52;;;;;;;;;;;20.60;65.10;;;;;;515973;231;960;-73
2021/07/07 04:57:54;;;;;;;;;;;20.50;64.90;;;;;;515949;231;978;-73
2021/07/07 04:59:54;;;;;;;;;;;20.50;65.10;;;;;;515888;230;1335;-73
2021/07/07 05:01:56;;;;;;;;;;;20.60;65.10;;;;;;515948;230;2121;-73
2021/07/07 05:03:57;;;;;;;;;;;20.60;65.00;;;;;;515902;231;1038;-73
2021/07/07 05:05:58;;;;;;;;;;;20.60;65.00;;;;;;515919;230;1048;-73
2021/07/07 05:08:00;;;;;;;;;;;20.50;64.90;;;;;;515944;230;1034;-73
2021/07/07 05:10:02;;;;;;;;;;;20.60;64.90;;;;;;515874;230;958;-73
2021/07/07 05:12:02;;;;;;;;;;;20.50;64.90;;;;;;515842;230;1395;-73
2021/07/07 05:14:04;;;;;;;;;;;20.60;64.90;;;;;;515906;231;1020;-73
2021/07/07 05:16:05;;;;;;;;;;;20.60;64.90;;;;;;515903;230;986;-73
2021/07/07 05:18:06;;;;;;;;;;;20.60;64.90;;;;;;515780;231;1145;-73
2021/07/07 05:20:08;;;;;;;;;;;20.60;64.90;;;;;;515804;231;1028;-73
2021/07/07 05:22:09;;;;;;;;;;;20.60;64.90;;;;;;515832;230;2177;-73
2021/07/07 05:24:11;;;;;;;;;;;20.60;65.00;;;;;;515713;231;980;-73
2021/07/07 05:26:12;;;;;;;;;;;20.60;65.00;;;;;;515752;230;981;-73
2021/07/07 05:28:14;;;;;;;;;;;20.60;65.00;;;;;;515837;230;1038;-73
2021/07/07 05:30:15;;;;;;;;;;;20.60;65.00;;;;;;515871;231;1087;-73
2021/07/07 05:32:21;;;;;;;;;;;20.60;65.10;;;;;;515847;230;1138;-73
2021/07/07 05:34:18;;;;;;;;;;;20.60;65.10;;;;;;515659;230;1400;-73
2021/07/07 05:36:20;;;;;;;;;;;20.60;65.00;;;;;;515803;230;1017;-73
2021/07/07 05:38:21;;;;;;;;;;;20.50;65.10;;;;;;515794;231;1002;-73
2021/07/07 05:40:23;;;;;;;;;;;20.60;65.20;;;;;;515736;230;1070;-73
2021/07/07 05:42:25;;;;;;;;;;;20.50;65.20;;;;;;515528;231;2176;-73
2021/07/07 05:44:26;;;;;;;;;;;20.50;65.20;;;;;;515655;230;955;-73
2021/07/07 05:46:27;;;;;;;;;;;20.50;65.20;;;;;;515734;230;1025;-73
2021/07/07 05:48:29;;;;;;;;;;;20.60;65.30;;;;;;515729;230;1163;-73
2021/07/07 05:50:30;;;;;;;;;;;20.60;65.20;;;;;;515834;230;961;-73
2021/07/07 05:52:31;;;;;;;;;;;20.60;65.20;;;;;;515747;230;1017;-73
2021/07/07 05:54:33;;;;;;;;;;;20.60;65.20;;;;;;515811;230;937;-73
2021/07/07 05:56:34;;;;;;;;;;;20.60;65.20;;;;;;515740;231;1071;-73
2021/07/07 05:58:35;;;;;;;;;;;20.60;65.20;;;;;;515758;230;1090;-73
2021/07/07 06:00:37;;;;;;;;;;;20.50;65.20;;;;;;515812;231;989;-73
2021/07/07 06:02:38;;;;;;;;;;;20.60;65.10;;;;;;515777;230;2106;-73
2021/07/07 06:04:41;;;;;;;;;;;20.60;65.10;;;;;;515646;231;1210;-73
2021/07/07 06:06:41;;;;;;;;;;;20.60;65.10;;;;;;515583;231;1523;-73
2021/07/07 06:08:42;;;;;;;;;;;20.60;65.10;;;;;;515613;231;1276;-73
2021/07/07 06:10:45;;;;;;;;;;;20.60;65.10;;;;;;515727;231;956;-74
2021/07/07 06:12:44;;;;;;;;;;;20.60;65.10;;;;;;515584;230;1267;-73
2021/07/07 06:14:46;;;;;;;;;;;20.50;65.20;;;;;;515759;231;1021;-73
2021/07/07 06:16:49;;;;;;;;;;;20.50;65.20;;;;;;515758;231;978;-73
2021/07/07 06:18:50;;;;;;;;;;;20.50;65.20;;;;;;515568;231;1427;-73
2021/07/07 06:20:51;;;;;;;;;;;20.50;65.20;;;;;;515609;231;1011;-73
2021/07/07 06:22:52;;;;;;;;;;;20.60;65.20;;;;;;515516;231;2173;-73
2021/07/07 06:24:53;;;;;;;;;;;20.60;65.20;;;;;;515465;231;1017;-73
2021/07/07 06:26:55;;;;;;;;;;;20.50;65.20;;;;;;515237;230;1064;-73
2021/07/07 06:28:56;;;;;;;;;;;20.50;65.10;;;;;;515413;230;1028;-73
2021/07/07 06:30:57;;;;;;;;;;;20.60;65.20;;;;;;515338;231;1333;-73
2021/07/07 06:32:59;;;;;;;;;;;20.50;65.20;;;;;;515314;230;1185;-73
2021/07/07 06:35:01;;;;;;;;;;;20.50;65.20;;;;;;515359;230;957;-73
2021/07/07 06:37:02;;;;;;;;;;;20.50;65.20;;;;;;515429;230;1319;-73
2021/07/07 06:39:03;;;;;;;;;;;20.50;65.10;;;;;;515439;231;1192;-73
2021/07/07 06:41:05;;;;;;;;;;;20.50;65.10;;;;;;515500;231;1095;-73
2021/07/07 06:43:06;;;;;;;;;;;20.60;65.10;;;;;;515172;230;2188;-72
2021/07/07 06:45:07;;;;;;;;;;;20.60;65.00;;;;;;515168;230;1000;-73
2021/07/07 06:47:11;;;;;;;;;;;20.60;64.90;;;;;;515241;230;1051;-73
2021/07/07 06:49:10;;;;;;;;;;;20.60;65.00;;;;;;514910;230;1551;-73
2021/07/07 06:51:11;;;;;;;;;;;20.60;64.90;;;;;;515199;231;1011;-73
2021/07/07 06:53:14;;;;;;;;;;;20.60;64.90;;;;;;515412;230;1064;-73
2021/07/07 06:55:14;;;;;;;;;;;20.60;64.90;;;;;;515339;231;1405;-73
2021/07/07 06:57:15;;;;;;;;;;;20.60;64.90;;;;;;515219;231;1046;-73
2021/07/07 06:59:17;;;;;;;;;;;20.60;65.00;;;;;;515273;230;1144;-73
2021/07/07 07:01:18;;;;;;;;;;;20.60;64.90;;;;;;515170;230;1027;-73
2021/07/07 07:03:19;;;;;;;;;;;20.60;65.10;;;;;;515162;231;2133;-73
2021/07/07 07:05:21;;;;;;;;;;;20.60;65.00;;;;;;515211;231;1067;-73
2021/07/07 07:07:22;;;;;;;;;;;20.60;65.10;;;;;;515282;230;1030;-73
2021/07/07 07:09:23;;;;;;;;;;;20.60;65.10;;;;;;515317;231;1042;-73
2021/07/07 07:11:25;;;;;;;;;;;20.60;65.10;;;;;;515189;231;1321;-73
2021/07/07 07:13:26;;;;;;;;;;;20.60;65.10;;;;;;516257;230;1034;-73
2021/07/07 07:15:27;;;;;;;;;;;20.60;65.10;;;;;;515781;230;1190;-73
2021/07/07 07:17:29;;;;;;;;;;;20.60;65.00;;;;;;515726;230;1220;-73
2021/07/07 07:19:30;;;;;;;;;;;20.60;65.00;;;;;;515056;230;1158;-73
2021/07/07 07:21:31;;;;;;;;;;;20.60;65.00;;;;;;515224;231;1165;-73
2021/07/07 07:23:33;;;;;;;;;;;20.60;65.10;;;;;;515111;230;2129;-73
2021/07/07 07:25:34;;;;;;;;;;;20.60;65.10;;;;;;515057;231;1033;-73
2021/07/07 07:27:36;;;;;;;;;;;20.60;65.10;;;;;;516266;230;1201;-73
2021/07/07 07:29:37;;;;;;;;;;;20.60;65.00;;;;;;516304;230;1006;-73
2021/07/07 07:31:39;;;;;;;;;;;20.60;65.00;;;;;;516228;230;1365;-73
2021/07/07 07:33:40;;;;;;;;;;;20.60;65.00;;;;;;516178;230;1154;-73
2021/07/07 07:35:42;;;;;;;;;;;20.70;65.00;;;;;;516172;230;1502;-73
2021/07/07 07:37:49;;;;;;;;;;;20.60;65.00;;;;;;516160;230;1304;-73
2021/07/07 07:39:48;;;;;;;;;;;20.70;65.10;;;;;;515883;229;1299;-73
2021/07/07 07:41:47;;;;;;;;;;;20.60;65.00;;;;;;516025;229;1179;-73
2021/07/07 07:43:48;;;;;;;;;;;20.60;65.00;;;;;;515196;230;2185;-73
2021/07/07 07:45:49;;;;;;;;;;;20.70;65.00;;;;;;514975;230;1062;-73
2021/07/07 07:47:51;;;;;;;;;;;20.70;65.00;;;;;;514970;231;1117;-73
2021/07/07 07:49:52;;;;;;;;;;;20.70;65.00;;;;;;514776;231;1072;-73
2021/07/07 07:51:53;;;;;;;;;;;20.60;64.90;;;;;;514986;231;1034;-73
2021/07/07 07:53:55;;;;;;;;;;;20.60;65.00;;;;;;515504;230;831;-73
2021/07/07 07:55:56;;;;;;;;;;;20.70;65.10;;;;;;515367;230;732;-73
2021/07/07 07:57:57;;;;;;;;;;;20.60;65.00;;;;;;515380;230;770;-73
2021/07/07 07:59:59;;;;;;;;;;;20.70;65.00;;;;;;515467;230;732;-73
2021/07/07 08:02:00;;;;;;;;;;;20.70;64.90;;;;;;515256;231;831;-74
2021/07/07 08:04:01;;;;;;;;;;;20.70;64.90;;;;;;515274;231;2173;-74
2021/07/07 08:06:03;;;;;;;;;;;20.70;64.70;;;;;;515879;230;873;-74
2021/07/07 08:08:04;;;;;;;;;;;20.80;64.60;;;;;;515841;230;827;-73
2021/07/07 08:10:05;;;;;;;;;;;20.80;64.50;;;;;;515119;230;977;-73
2021/07/07 08:16:27;;;;;;;;;;;20.90;64.40;;;;;;493621;231;2614;-73
2021/07/07 08:18:28;;;;;;;;;;;20.80;64.40;;;;;;491493;241;1097;-73
2021/07/07 08:20:30;;;;;;;;;;;20.80;64.30;;;;;;491475;241;1089;-73
2021/07/07 08:22:31;;;;;;;;;;;20.80;64.40;;;;;;491539;241;1254;-73
2021/07/07 08:24:32;;;;;;;;;;;20.80;64.40;;;;;;491559;241;2128;-73
2021/07/07 08:26:34;;;;;;;;;;;20.80;64.30;;;;;;491568;241;1065;-73
2021/07/07 08:28:35;;;;;;;;;;;20.80;64.30;;;;;;491345;241;1092;-73
2021/07/07 08:30:36;;;;;;;;;;;20.90;64.30;;;;;;491328;241;1113;-73
2021/07/07 08:32:38;;;;;;;;;;;20.90;64.30;;;;;;491450;241;1147;-72
2021/07/07 08:34:39;;;;;;;;;;;20.90;64.30;;;;;;491589;241;1069;-73
2021/07/07 08:36:40;;;;;;;;;;;20.90;64.30;;;;;;491678;241;1084;-72
2021/07/07 08:38:42;;;;;;;;;;;20.90;64.40;;;;;;491685;241;1095;-73
2021/07/07 08:40:43;;;;;;;;;;;20.80;64.50;;;;;;491596;241;1177;-72
2021/07/07 08:42:44;;;;;;;;;;;20.70;64.80;;;;;;491608;241;2188;-72
2021/07/07 08:44:46;;;;;;;;;;;20.70;64.90;;;;;;491517;241;1187;-73
2021/07/07 08:46:47;;;;;;;;;;;20.70;65.00;;;;;;491466;241;1126;-73
2021/07/07 08:48:49;;;;;;;;;;;20.70;65.10;;;;;;491710;241;1195;-73
2021/07/07 08:50:53;;;;;;;;;;;20.60;65.10;;;;;;491710;241;1118;-73
2021/07/07 08:52:51;;;;;;;;;;;20.60;65.10;;;;;;491414;241;1449;-73
2021/07/07 08:54:52;;;;;;;;;;;20.70;65.10;;;;;;491580;241;1173;-73
2021/07/07 08:56:54;;;;;;;;;;;20.60;65.10;;;;;;491508;241;1066;-73
2021/07/07 08:58:55;;;;;;;;;;;20.60;65.10;;;;;;491727;241;1097;-73
2021/07/07 09:00:56;;;;;;;;;;;20.60;65.30;;;;;;491727;241;1190;-73
2021/07/07 09:02:58;;;;;;;;;;;20.60;65.30;;;;;;491631;241;2195;-73
2021/07/07 09:04:59;;;;;;;;;;;20.60;65.30;;;;;;491455;241;1291;-73
2021/07/07 09:07:01;;;;;;;;;;;20.60;65.30;;;;;;491469;241;1125;-73
2021/07/07 09:09:03;;;;;;;;;;;20.60;65.30;;;;;;491632;241;1106;-73
2021/07/07 09:11:03;;;;;;;;;;;20.60;65.40;;;;;;491363;241;1292;-73
2021/07/07 09:13:04;;;;;;;;;;;20.60;65.40;;;;;;491311;241;1159;-73
2021/07/07 09:15:06;;;;;;;;;;;20.60;65.50;;;;;;491488;241;1201;-73
2021/07/07 09:17:07;;;;;;;;;;;20.60;65.40;;;;;;491485;241;1200;-73
2021/07/07 09:19:09;;;;;;;;;;;20.60;65.30;;;;;;491336;241;1103;-73
2021/07/07 09:21:10;;;;;;;;;;;20.60;65.30;;;;;;491322;241;1104;-73
2021/07/07 09:23:11;;;;;;;;;;;20.60;65.30;;;;;;491489;241;2179;-73
2021/07/07 09:25:14;;;;;;;;;;;20.60;65.40;;;;;;491615;241;1024;-73
2021/07/07 09:27:15;;;;;;;;;;;20.50;65.40;;;;;;491522;241;1181;-73
2021/07/07 09:29:16;;;;;;;;;;;20.50;65.40;;;;;;491557;241;1093;-73
2021/07/07 09:31:17;;;;;;;;;;;20.60;65.50;;;;;;491381;241;1232;-73
2021/07/07 09:33:19;;;;;;;;;;;20.60;65.50;;;;;;491356;241;1107;-73
2021/07/07 09:35:20;;;;;;;;;;;20.60;65.40;;;;;;491397;241;1108;-73
2021/07/07 09:37:22;;;;;;;;;;;20.60;65.50;;;;;;491231;241;1105;-73
2021/07/07 09:39:23;;;;;;;;;;;20.60;65.50;;;;;;491334;241;1172;-73
2021/07/07 09:41:25;;;;;;;;;;;20.60;65.50;;;;;;491409;241;1084;-73
2021/07/07 09:43:26;;;;;;;;;;;20.50;65.40;;;;;;491384;241;2203;-73
2021/07/07 09:45:27;;;;;;;;;;;20.60;65.50;;;;;;491468;241;1092;-72
2021/07/07 09:47:28;;;;;;;;;;;20.60;65.30;;;;;;491491;241;1054;-75
2021/07/07 09:49:30;;;;;;;;;;;20.60;65.50;;;;;;491549;241;1077;-72
2021/07/07 09:51:33;;;;;;;;;;;20.50;65.40;;;;;;491464;241;1063;-72
2021/07/07 09:53:33;;;;;;;;;;;20.60;65.50;;;;;;491595;241;1331;-72
2021/07/07 09:55:34;;;;;;;;;;;20.60;65.60;;;;;;491734;241;1125;-72
2021/07/07 09:57:44;;;;;;;;;;;20.50;65.50;;;;;;491959;241;969;-72
2021/07/07 09:59:38;;;;;;;;;;;20.50;65.60;;;;;;492069;241;1349;-72
2021/07/07 10:01:39;;;;;;;;;;;20.60;65.60;;;;;;491996;241;1122;-71
2021/07/07 10:03:41;;;;;;;;;;;20.50;65.60;;;;;;491773;241;2183;-72
2021/07/07 10:05:42;;;;;;;;;;;20.50;65.60;;;;;;491718;241;1119;-72
2021/07/07 10:07:43;;;;;;;;;;;20.50;65.70;;;;;;491813;241;1311;-72
2021/07/07 10:09:45;;;;;;;;;;;20.50;65.80;;;;;;492018;241;1107;-72
2021/07/07 10:11:46;;;;;;;;;;;20.50;65.70;;;;;;491954;241;1112;-72
2021/07/07 10:13:47;;;;;;;;;;;20.50;65.70;;;;;;491898;241;1139;-72
2021/07/07 10:15:50;;;;;;;;;;;20.50;65.70;;;;;;491812;241;1418;-71
2021/07/07 10:17:50;;;;;;;;;;;20.50;65.70;;;;;;491820;241;1370;-72
2021/07/07 10:19:51;;;;;;;;;;;20.50;65.60;;;;;;491810;241;1145;-72
2021/07/07 10:21:53;;;;;;;;;;;20.50;65.70;;;;;;491792;241;1202;-72
2021/07/07 10:23:54;;;;;;;;;;;20.50;65.60;;;;;;491781;241;2199;-72
2021/07/07 10:25:55;;;;;;;;;;;20.50;65.60;;;;;;491739;241;1098;-71
2021/07/07 10:27:57;;;;;;;;;;;20.50;65.60;;;;;;491852;241;1087;-72
2021/07/07 10:29:58;;;;;;;;;;;20.50;65.50;;;;;;491830;241;1082;-72
2021/07/07 10:31:59;;;;;;;;;;;20.50;65.60;;;;;;491862;241;1294;-72
2021/07/07 10:34:01;;;;;;;;;;;20.50;65.50;;;;;;491761;241;1070;-72
2021/07/07 10:36:02;;;;;;;;;;;20.50;65.40;;;;;;491793;241;1068;-72
2021/07/07 10:38:04;;;;;;;;;;;20.50;65.40;;;;;;491678;241;1121;-72
2021/07/07 10:40:06;;;;;;;;;;;20.50;65.30;;;;;;491733;241;1103;-72
2021/07/07 10:42:08;;;;;;;;;;;20.50;65.40;;;;;;491349;241;1402;-72
2021/07/07 10:44:08;;;;;;;;;;;20.40;65.40;;;;;;491635;241;2207;-71
2021/07/07 10:46:10;;;;;;;;;;;20.40;65.40;;;;;;491773;241;1276;-72
2021/07/07 10:48:11;;;;;;;;;;;20.50;65.50;;;;;;491939;241;1070;-71
2021/07/07 10:50:12;;;;;;;;;;;20.50;65.50;;;;;;491887;241;1186;-72
2021/07/07 10:52:14;;;;;;;;;;;20.40;65.40;;;;;;491858;241;1127;-72
2021/07/07 10:54:15;;;;;;;;;;;20.40;65.40;;;;;;491778;241;1263;-72
2021/07/07 10:56:17;;;;;;;;;;;20.40;65.40;;;;;;491750;241;1088;-72
2021/07/07 10:58:18;;;;;;;;;;;20.40;65.40;;;;;;491885;241;1125;-72
2021/07/07 11:00:19;;;;;;;;;;;20.40;65.40;;;;;;492005;241;1092;-72
2021/07/07 11:02:21;;;;;;;;;;;20.40;65.40;;;;;;491774;241;1241;-72
2021/07/07 11:04:22;;;;;;;;;;;20.40;65.30;;;;;;491796;241;2172;-72
2021/07/07 11:06:23;;;;;;;;;;;20.40;65.20;;;;;;491808;241;1137;-72
2021/07/07 11:08:25;;;;;;;;;;;20.40;65.40;;;;;;491735;241;1049;-73
2021/07/07 11:10:26;;;;;;;;;;;20.40;65.40;;;;;;491622;241;1089;-72
2021/07/07 11:12:27;;;;;;;;;;;20.40;65.50;;;;;;491607;241;1129;-72
2021/07/07 11:14:29;;;;;;;;;;;20.40;65.50;;;;;;491515;241;1089;-72
2021/07/07 11:16:30;;;;;;;;;;;20.40;65.50;;;;;;491783;241;1180;-71
2021/07/07 11:18:32;;;;;;;;;;;20.40;65.40;;;;;;491870;241;1079;-71
2021/07/07 11:20:35;;;;;;;;;;;20.40;65.40;;;;;;491909;241;1124;-71
2021/07/07 11:22:35;;;;;;;;;;;20.40;65.40;;;;;;491832;241;1369;-71
2021/07/07 11:24:36;;;;;;;;;;;20.40;65.30;;;;;;491890;241;2183;-72
2021/07/07 11:26:38;;;;;;;;;;;20.40;65.20;;;;;;491902;241;1115;-71
2021/07/07 11:28:41;;;;;;;;;;;20.40;65.20;;;;;;491884;241;1146;-71
2021/07/07 11:30:40;;;;;;;;;;;20.40;65.20;;;;;;491827;241;1270;-71
2021/07/07 11:32:42;;;;;;;;;;;20.50;65.20;;;;;;491918;241;1200;-71
2021/07/07 11:34:43;;;;;;;;;;;20.40;65.20;;;;;;491838;241;1066;-72
2021/07/07 11:36:45;;;;;;;;;;;20.50;65.20;;;;;;491904;241;1078;-71
2021/07/07 11:38:46;;;;;;;;;;;20.40;65.20;;;;;;491634;241;1099;-72
2021/07/07 11:40:51;;;;;;;;;;;20.40;65.20;;;;;;491708;241;1091;-72
2021/07/07 11:42:48;;;;;;;;;;;20.40;65.20;;;;;;491390;241;1645;-71
2021/07/07 11:44:50;;;;;;;;;;;20.40;65.10;;;;;;491689;241;2183;-71
2021/07/07 11:46:51;;;;;;;;;;;20.40;65.20;;;;;;491667;241;1109;-71
2021/07/07 11:48:52;;;;;;;;;;;20.40;65.20;;;;;;491498;241;1092;-71
2021/07/07 11:50:55;;;;;;;;;;;20.40;65.20;;;;;;491661;241;1204;-72
2021/07/07 11:52:55;;;;;;;;;;;20.40;65.20;;;;;;491628;241;1288;-71
2021/07/07 11:54:56;;;;;;;;;;;20.40;65.20;;;;;;491695;241;1066;-71
2021/07/07 11:56:58;;;;;;;;;;;20.40;65.20;;;;;;491641;241;1117;-71
2021/07/07 11:58:59;;;;;;;;;;;20.40;65.20;;;;;;491695;241;1088;-71
2021/07/07 12:01:00;;;;;;;;;;;20.40;65.20;;;;;;491779;241;1116;-71
2021/07/07 12:03:02;;;;;;;;;;;20.40;65.20;;;;;;491750;241;1199;-71